sensor_id;sensor_type;location;lat;lon;timestamp;temperature;humidity
41447;DHT22;27185;52.040;4.490;2023-03-13T00:01:54;11.50;99.90
41447;DHT22;27185;52.040;4.490;2023-03-13T00:04:39;11.40;99.90
41447;DHT22;27185;52.040;4.490;2023-03-13T00:07:25;11.40;99.90
41447;DHT22;27185;52.040;4.490;2023-03-13T00:10:10;11.40;99.90
41447;DHT22;27185;52.040;4.490;2023-03-13T00:12:56;11.50;99.90
41447;DHT22;27185;52.040;4.490;2023-03-13T00:15:42;11.50;99.90
41447;DHT22;27185;52.040;4.490;2023-03-13T00:18:27;11.40;99.90
41447;DHT22;27185;52.040;4.490;2023-03-13T00:21:13;11.50;99.90
41447;DHT22;27185;52.040;4.490;2023-03-13T00:23:59;11.60;99.90
41447;DHT22;27185;52.040;4.490;2023-03-13T00:26:45;11.50;99.90
41447;DHT22;27185;52.040;4.490;2023-03-13T00:29:32;11.50;99.90
41447;DHT22;27185;52.040;4.490;2023-03-13T00:32:18;11.50;99.90
41447;DHT22;27185;52.040;4.490;2023-03-13T00:35:03;11.60;99.90
41447;DHT22;27185;52.040;4.490;2023-03-13T00:37:49;11.60;99.90
41447;DHT22;27185;52.040;4.490;2023-03-13T00:40:35;11.50;99.90
41447;DHT22;27185;52.040;4.490;2023-03-13T00:43:21;11.50;99.90
41447;DHT22;27185;52.040;4.490;2023-03-13T00:46:08;11.60;99.90
41447;DHT22;27185;52.040;4.490;2023-03-13T00:48:54;11.60;99.90
41447;DHT22;27185;52.040;4.490;2023-03-13T00:51:39;11.70;99.90
41447;DHT22;27185;52.040;4.490;2023-03-13T00:54:25;11.80;99.90
41447;DHT22;27185;52.040;4.490;2023-03-13T00:57:11;11.80;99.90
41447;DHT22;27185;52.040;4.490;2023-03-13T00:59:56;11.70;99.90
41447;DHT22;27185;52.040;4.490;2023-03-13T01:02:42;11.80;99.90
41447;DHT22;27185;52.040;4.490;2023-03-13T01:05:28;11.80;99.90
41447;DHT22;27185;52.040;4.490;2023-03-13T01:08:13;11.90;99.90
41447;DHT22;27185;52.040;4.490;2023-03-13T01:11:02;11.90;99.90
41447;DHT22;27185;52.040;4.490;2023-03-13T01:13:48;11.90;99.90
41447;DHT22;27185;52.040;4.490;2023-03-13T01:16:35;11.90;99.90
41447;DHT22;27185;52.040;4.490;2023-03-13T01:19:21;12.00;99.90
41447;DHT22;27185;52.040;4.490;2023-03-13T01:22:06;12.00;99.90
41447;DHT22;27185;52.040;4.490;2023-03-13T01:24:55;12.00;99.90
41447;DHT22;27185;52.040;4.490;2023-03-13T01:27:41;12.00;99.90
41447;DHT22;27185;52.040;4.490;2023-03-13T01:30:27;12.00;99.90
41447;DHT22;27185;52.040;4.490;2023-03-13T01:33:13;12.10;99.90
41447;DHT22;27185;52.040;4.490;2023-03-13T01:36:02;12.20;99.90
41447;DHT22;27185;52.040;4.490;2023-03-13T01:38:50;12.20;99.90
41447;DHT22;27185;52.040;4.490;2023-03-13T01:41:36;12.30;99.90
41447;DHT22;27185;52.040;4.490;2023-03-13T01:44:24;12.20;99.90
41447;DHT22;27185;52.040;4.490;2023-03-13T01:47:10;12.20;99.90
41447;DHT22;27185;52.040;4.490;2023-03-13T01:49:55;12.40;99.90
41447;DHT22;27185;52.040;4.490;2023-03-13T01:52:41;12.30;99.90
41447;DHT22;27185;52.040;4.490;2023-03-13T01:55:27;12.30;99.90
41447;DHT22;27185;52.040;4.490;2023-03-13T01:58:12;12.40;99.90
41447;DHT22;27185;52.040;4.490;2023-03-13T02:00:59;12.50;99.90
41447;DHT22;27185;52.040;4.490;2023-03-13T02:03:46;12.50;99.90
41447;DHT22;27185;52.040;4.490;2023-03-13T02:06:35;12.60;99.90
41447;DHT22;27185;52.040;4.490;2023-03-13T02:09:25;12.50;99.90
41447;DHT22;27185;52.040;4.490;2023-03-13T02:12:16;12.60;99.90
41447;DHT22;27185;52.040;4.490;2023-03-13T02:15:18;12.60;99.90
41447;DHT22;27185;52.040;4.490;2023-03-13T02:18:04;12.70;99.90
41447;DHT22;27185;52.040;4.490;2023-03-13T02:20:53;12.70;99.90
41447;DHT22;27185;52.040;4.490;2023-03-13T02:24:04;12.80;99.90
41447;DHT22;27185;52.040;4.490;2023-03-13T02:26:52;12.80;99.90
41447;DHT22;27185;52.040;4.490;2023-03-13T02:29:39;12.90;99.90
41447;DHT22;27185;52.040;4.490;2023-03-13T02:32:26;12.80;99.90
41447;DHT22;27185;52.040;4.490;2023-03-13T02:35:17;12.90;99.90
41447;DHT22;27185;52.040;4.490;2023-03-13T02:38:06;13.00;99.90
41447;DHT22;27185;52.040;4.490;2023-03-13T02:40:53;13.00;99.90
41447;DHT22;27185;52.040;4.490;2023-03-13T02:43:40;12.90;99.90
41447;DHT22;27185;52.040;4.490;2023-03-13T02:46:25;13.00;99.90
41447;DHT22;27185;52.040;4.490;2023-03-13T02:49:23;13.00;99.90
41447;DHT22;27185;52.040;4.490;2023-03-13T02:52:20;13.10;99.90
41447;DHT22;27185;52.040;4.490;2023-03-13T02:55:13;13.10;99.90
41447;DHT22;27185;52.040;4.490;2023-03-13T02:57:59;13.20;99.90
41447;DHT22;27185;52.040;4.490;2023-03-13T03:00:45;13.20;99.90
41447;DHT22;27185;52.040;4.490;2023-03-13T03:03:31;13.30;99.90
41447;DHT22;27185;52.040;4.490;2023-03-13T03:06:16;13.30;99.90
41447;DHT22;27185;52.040;4.490;2023-03-13T03:09:02;13.40;99.90
41447;DHT22;27185;52.040;4.490;2023-03-13T03:11:48;13.40;99.90
41447;DHT22;27185;52.040;4.490;2023-03-13T03:14:35;13.40;99.90
41447;DHT22;27185;52.040;4.490;2023-03-13T03:17:20;13.50;99.90
41447;DHT22;27185;52.040;4.490;2023-03-13T03:20:06;13.60;99.90
41447;DHT22;27185;52.040;4.490;2023-03-13T03:22:56;13.60;99.90
41447;DHT22;27185;52.040;4.490;2023-03-13T03:25:41;13.70;99.90
41447;DHT22;27185;52.040;4.490;2023-03-13T03:28:28;13.70;99.90
41447;DHT22;27185;52.040;4.490;2023-03-13T03:31:14;13.60;99.90
41447;DHT22;27185;52.040;4.490;2023-03-13T03:34:00;13.70;99.90
41447;DHT22;27185;52.040;4.490;2023-03-13T03:36:45;13.70;99.90
41447;DHT22;27185;52.040;4.490;2023-03-13T03:39:31;13.70;99.90
41447;DHT22;27185;52.040;4.490;2023-03-13T03:42:17;13.80;99.90
41447;DHT22;27185;52.040;4.490;2023-03-13T03:45:02;13.70;99.90
41447;DHT22;27185;52.040;4.490;2023-03-13T03:47:48;13.70;99.90
41447;DHT22;27185;52.040;4.490;2023-03-13T03:50:34;13.70;99.90
41447;DHT22;27185;52.040;4.490;2023-03-13T03:53:19;13.70;99.90
41447;DHT22;27185;52.040;4.490;2023-03-13T03:56:05;13.70;99.90
41447;DHT22;27185;52.040;4.490;2023-03-13T03:58:51;13.70;99.90
41447;DHT22;27185;52.040;4.490;2023-03-13T04:01:37;13.70;99.90
41447;DHT22;27185;52.040;4.490;2023-03-13T04:04:22;13.70;99.90
41447;DHT22;27185;52.040;4.490;2023-03-13T04:07:08;13.70;99.90
41447;DHT22;27185;52.040;4.490;2023-03-13T04:09:54;13.70;99.90
41447;DHT22;27185;52.040;4.490;2023-03-13T04:12:39;13.70;99.90
41447;DHT22;27185;52.040;4.490;2023-03-13T04:15:25;13.60;99.90
41447;DHT22;27185;52.040;4.490;2023-03-13T04:18:10;13.70;99.90
41447;DHT22;27185;52.040;4.490;2023-03-13T04:21:04;13.80;99.90
41447;DHT22;27185;52.040;4.490;2023-03-13T04:23:50;13.70;99.90
41447;DHT22;27185;52.040;4.490;2023-03-13T04:26:35;13.70;99.90
41447;DHT22;27185;52.040;4.490;2023-03-13T04:29:21;13.70;99.90
41447;DHT22;27185;52.040;4.490;2023-03-13T04:32:07;13.70;99.90
41447;DHT22;27185;52.040;4.490;2023-03-13T04:34:52;13.60;99.90
41447;DHT22;27185;52.040;4.490;2023-03-13T04:37:38;13.60;99.90
41447;DHT22;27185;52.040;4.490;2023-03-13T04:40:24;13.60;99.90
41447;DHT22;27185;52.040;4.490;2023-03-13T04:43:09;13.60;99.90
41447;DHT22;27185;52.040;4.490;2023-03-13T04:45:55;13.60;99.90
41447;DHT22;27185;52.040;4.490;2023-03-13T04:48:40;13.70;99.90
41447;DHT22;27185;52.040;4.490;2023-03-13T04:51:26;13.70;99.90
41447;DHT22;27185;52.040;4.490;2023-03-13T04:54:12;13.70;99.90
41447;DHT22;27185;52.040;4.490;2023-03-13T04:56:58;13.70;99.90
41447;DHT22;27185;52.040;4.490;2023-03-13T04:59:43;13.80;99.90
41447;DHT22;27185;52.040;4.490;2023-03-13T05:02:29;13.80;99.90
41447;DHT22;27185;52.040;4.490;2023-03-13T05:05:14;13.80;99.90
41447;DHT22;27185;52.040;4.490;2023-03-13T05:08:01;13.90;99.90
41447;DHT22;27185;52.040;4.490;2023-03-13T05:10:46;13.90;99.90
41447;DHT22;27185;52.040;4.490;2023-03-13T05:13:32;14.00;99.90
41447;DHT22;27185;52.040;4.490;2023-03-13T05:16:18;13.90;99.90
41447;DHT22;27185;52.040;4.490;2023-03-13T05:19:03;14.00;99.90
41447;DHT22;27185;52.040;4.490;2023-03-13T05:21:49;14.00;99.90
41447;DHT22;27185;52.040;4.490;2023-03-13T05:24:34;14.10;99.90
41447;DHT22;27185;52.040;4.490;2023-03-13T05:27:20;14.10;99.90
41447;DHT22;27185;52.040;4.490;2023-03-13T05:30:06;14.10;99.90
41447;DHT22;27185;52.040;4.490;2023-03-13T05:32:52;14.10;99.90
41447;DHT22;27185;52.040;4.490;2023-03-13T05:35:38;14.20;99.90
41447;DHT22;27185;52.040;4.490;2023-03-13T05:38:24;14.20;99.90
41447;DHT22;27185;52.040;4.490;2023-03-13T05:41:10;14.20;99.90
41447;DHT22;27185;52.040;4.490;2023-03-13T05:43:55;14.20;99.90
41447;DHT22;27185;52.040;4.490;2023-03-13T05:46:41;14.20;99.90
41447;DHT22;27185;52.040;4.490;2023-03-13T05:49:26;14.30;99.90
41447;DHT22;27185;52.040;4.490;2023-03-13T05:52:12;14.30;99.90
41447;DHT22;27185;52.040;4.490;2023-03-13T05:54:58;14.40;99.90
41447;DHT22;27185;52.040;4.490;2023-03-13T05:57:47;14.40;99.90
41447;DHT22;27185;52.040;4.490;2023-03-13T06:00:33;14.40;99.90
41447;DHT22;27185;52.040;4.490;2023-03-13T06:03:19;14.50;99.90
41447;DHT22;27185;52.040;4.490;2023-03-13T06:06:05;14.60;99.90
41447;DHT22;27185;52.040;4.490;2023-03-13T06:08:52;14.60;99.90
41447;DHT22;27185;52.040;4.490;2023-03-13T06:11:40;14.50;99.90
41447;DHT22;27185;52.040;4.490;2023-03-13T06:14:26;14.60;99.90
41447;DHT22;27185;52.040;4.490;2023-03-13T06:17:12;14.60;99.90
41447;DHT22;27185;52.040;4.490;2023-03-13T06:19:58;14.60;99.90
41447;DHT22;27185;52.040;4.490;2023-03-13T06:22:43;14.60;99.90
41447;DHT22;27185;52.040;4.490;2023-03-13T06:25:29;14.50;99.90
41447;DHT22;27185;52.040;4.490;2023-03-13T06:28:15;14.40;99.90
41447;DHT22;27185;52.040;4.490;2023-03-13T06:31:05;14.30;99.90
41447;DHT22;27185;52.040;4.490;2023-03-13T06:33:54;14.10;99.90
41447;DHT22;27185;52.040;4.490;2023-03-13T06:36:40;14.20;99.90
41447;DHT22;27185;52.040;4.490;2023-03-13T06:39:26;14.00;99.90
41447;DHT22;27185;52.040;4.490;2023-03-13T06:42:12;13.90;99.90
41447;DHT22;27185;52.040;4.490;2023-03-13T06:44:57;13.80;99.90
41447;DHT22;27185;52.040;4.490;2023-03-13T06:47:43;13.60;99.90
41447;DHT22;27185;52.040;4.490;2023-03-13T06:50:29;13.70;99.90
41447;DHT22;27185;52.040;4.490;2023-03-13T06:53:16;13.70;99.90
41447;DHT22;27185;52.040;4.490;2023-03-13T06:56:03;13.60;99.90
41447;DHT22;27185;52.040;4.490;2023-03-13T06:58:49;13.60;99.90
41447;DHT22;27185;52.040;4.490;2023-03-13T07:01:34;13.50;99.90
41447;DHT22;27185;52.040;4.490;2023-03-13T07:04:20;13.60;99.90
41447;DHT22;27185;52.040;4.490;2023-03-13T07:07:06;13.60;99.90
41447;DHT22;27185;52.040;4.490;2023-03-13T07:09:52;13.60;99.90
41447;DHT22;27185;52.040;4.490;2023-03-13T07:12:37;13.60;99.90
41447;DHT22;27185;52.040;4.490;2023-03-13T07:15:23;13.60;99.90
41447;DHT22;27185;52.040;4.490;2023-03-13T07:18:09;13.60;99.90
41447;DHT22;27185;52.040;4.490;2023-03-13T07:20:56;13.70;99.90
41447;DHT22;27185;52.040;4.490;2023-03-13T07:23:42;13.60;99.90
41447;DHT22;27185;52.040;4.490;2023-03-13T07:26:28;13.60;99.90
41447;DHT22;27185;52.040;4.490;2023-03-13T07:29:14;13.60;99.90
41447;DHT22;27185;52.040;4.490;2023-03-13T07:31:59;13.50;99.90
41447;DHT22;27185;52.040;4.490;2023-03-13T07:34:45;13.60;99.90
41447;DHT22;27185;52.040;4.490;2023-03-13T07:37:31;13.70;99.90
41447;DHT22;27185;52.040;4.490;2023-03-13T07:40:16;13.60;99.90
41447;DHT22;27185;52.040;4.490;2023-03-13T07:43:02;13.80;99.90
41447;DHT22;27185;52.040;4.490;2023-03-13T07:45:56;13.90;99.90
41447;DHT22;27185;52.040;4.490;2023-03-13T07:48:42;13.90;99.90
41447;DHT22;27185;52.040;4.490;2023-03-13T07:51:27;14.00;99.90
41447;DHT22;27185;52.040;4.490;2023-03-13T07:54:13;14.10;99.90
41447;DHT22;27185;52.040;4.490;2023-03-13T07:57:00;14.20;99.90
41447;DHT22;27185;52.040;4.490;2023-03-13T07:59:46;14.30;99.90
41447;DHT22;27185;52.040;4.490;2023-03-13T08:02:32;14.30;99.90
41447;DHT22;27185;52.040;4.490;2023-03-13T08:05:18;14.50;99.90
41447;DHT22;27185;52.040;4.490;2023-03-13T08:08:04;14.50;99.90
41447;DHT22;27185;52.040;4.490;2023-03-13T08:10:50;14.60;99.90
41447;DHT22;27185;52.040;4.490;2023-03-13T08:13:36;14.50;99.90
41447;DHT22;27185;52.040;4.490;2023-03-13T08:16:26;14.60;99.90
41447;DHT22;27185;52.040;4.490;2023-03-13T08:19:12;14.50;99.90
41447;DHT22;27185;52.040;4.490;2023-03-13T08:21:57;14.60;99.90
41447;DHT22;27185;52.040;4.490;2023-03-13T08:24:43;14.50;99.90
41447;DHT22;27185;52.040;4.490;2023-03-13T08:27:29;14.40;99.90
41447;DHT22;27185;52.040;4.490;2023-03-13T08:30:15;14.50;99.90
41447;DHT22;27185;52.040;4.490;2023-03-13T08:33:00;14.60;99.90
41447;DHT22;27185;52.040;4.490;2023-03-13T08:35:46;14.70;99.90
41447;DHT22;27185;52.040;4.490;2023-03-13T08:38:31;14.80;99.90
41447;DHT22;27185;52.040;4.490;2023-03-13T08:41:20;14.80;99.90
41447;DHT22;27185;52.040;4.490;2023-03-13T08:44:07;14.90;99.90
41447;DHT22;27185;52.040;4.490;2023-03-13T08:46:53;14.90;99.90
41447;DHT22;27185;52.040;4.490;2023-03-13T08:49:39;14.80;99.90
41447;DHT22;27185;52.040;4.490;2023-03-13T08:52:24;14.90;99.90
41447;DHT22;27185;52.040;4.490;2023-03-13T08:55:11;15.00;99.90
41447;DHT22;27185;52.040;4.490;2023-03-13T08:57:56;15.10;99.90
41447;DHT22;27185;52.040;4.490;2023-03-13T09:00:42;15.20;99.90
41447;DHT22;27185;52.040;4.490;2023-03-13T09:03:28;15.40;99.90
41447;DHT22;27185;52.040;4.490;2023-03-13T09:06:13;15.50;99.90
41447;DHT22;27185;52.040;4.490;2023-03-13T09:08:59;15.70;99.90
41447;DHT22;27185;52.040;4.490;2023-03-13T09:11:45;15.70;99.90
41447;DHT22;27185;52.040;4.490;2023-03-13T09:14:30;15.70;99.90
41447;DHT22;27185;52.040;4.490;2023-03-13T09:17:16;15.80;99.90
41447;DHT22;27185;52.040;4.490;2023-03-13T09:20:02;15.90;99.90
41447;DHT22;27185;52.040;4.490;2023-03-13T09:22:48;16.00;99.90
41447;DHT22;27185;52.040;4.490;2023-03-13T09:25:37;16.00;99.90
41447;DHT22;27185;52.040;4.490;2023-03-13T09:28:23;16.10;99.90
41447;DHT22;27185;52.040;4.490;2023-03-13T09:31:15;16.20;99.90
41447;DHT22;27185;52.040;4.490;2023-03-13T09:34:01;16.10;99.90
41447;DHT22;27185;52.040;4.490;2023-03-13T09:36:47;16.30;99.90
41447;DHT22;27185;52.040;4.490;2023-03-13T09:39:32;16.30;99.90
41447;DHT22;27185;52.040;4.490;2023-03-13T09:42:21;16.50;99.90
41447;DHT22;27185;52.040;4.490;2023-03-13T09:45:17;16.50;99.90
41447;DHT22;27185;52.040;4.490;2023-03-13T09:48:31;16.50;99.90
41447;DHT22;27185;52.040;4.490;2023-03-13T09:51:29;16.60;99.90
41447;DHT22;27185;52.040;4.490;2023-03-13T09:57:51;16.60;99.90
41447;DHT22;27185;52.040;4.490;2023-03-13T10:00:40;16.60;99.90
41447;DHT22;27185;52.040;4.490;2023-03-13T10:03:30;16.70;99.90
41447;DHT22;27185;52.040;4.490;2023-03-13T10:06:20;16.70;99.90
41447;DHT22;27185;52.040;4.490;2023-03-13T10:09:22;16.60;99.90
41447;DHT22;27185;52.040;4.490;2023-03-13T10:18:17;16.80;99.90
41447;DHT22;27185;52.040;4.490;2023-03-13T10:21:17;16.90;99.90
41447;DHT22;27185;52.040;4.490;2023-03-13T10:27:14;16.80;99.90
41447;DHT22;27185;52.040;4.490;2023-03-13T10:30:00;16.80;99.90
41447;DHT22;27185;52.040;4.490;2023-03-13T10:32:46;16.90;99.90
41447;DHT22;27185;52.040;4.490;2023-03-13T10:35:37;17.00;99.90
41447;DHT22;27185;52.040;4.490;2023-03-13T10:38:23;16.90;99.90
41447;DHT22;27185;52.040;4.490;2023-03-13T10:41:26;16.90;99.90
41447;DHT22;27185;52.040;4.490;2023-03-13T10:47:02;16.90;99.90
41447;DHT22;27185;52.040;4.490;2023-03-13T10:49:50;16.90;99.90
41447;DHT22;27185;52.040;4.490;2023-03-13T10:52:46;17.00;99.90
41447;DHT22;27185;52.040;4.490;2023-03-13T10:55:32;17.00;99.90
41447;DHT22;27185;52.040;4.490;2023-03-13T10:58:43;17.10;99.90
41447;DHT22;27185;52.040;4.490;2023-03-13T11:01:40;17.10;99.90
41447;DHT22;27185;52.040;4.490;2023-03-13T11:04:32;17.30;99.90
41447;DHT22;27185;52.040;4.490;2023-03-13T11:10:23;17.00;99.90
41447;DHT22;27185;52.040;4.490;2023-03-13T11:25:01;17.30;99.90
41447;DHT22;27185;52.040;4.490;2023-03-13T11:34:04;17.20;99.90
41447;DHT22;27185;52.040;4.490;2023-03-13T11:37:11;17.30;99.80
41447;DHT22;27185;52.040;4.490;2023-03-13T11:40:15;17.60;98.50
41447;DHT22;27185;52.040;4.490;2023-03-13T11:49:55;18.10;96.90
41447;DHT22;27185;52.040;4.490;2023-03-13T11:53:04;18.20;96.50
41447;DHT22;27185;52.040;4.490;2023-03-13T11:56:22;18.30;96.50
41447;DHT22;27185;52.040;4.490;2023-03-13T12:02:32;18.70;96.10
41447;DHT22;27185;52.040;4.490;2023-03-13T12:05:20;18.80;96.40
41447;DHT22;27185;52.040;4.490;2023-03-13T12:08:11;18.70;96.90
41447;DHT22;27185;52.040;4.490;2023-03-13T12:11:27;18.70;96.90
41447;DHT22;27185;52.040;4.490;2023-03-13T12:14:32;18.60;96.80
41447;DHT22;27185;52.040;4.490;2023-03-13T12:17:41;18.40;97.40
41447;DHT22;27185;52.040;4.490;2023-03-13T12:26:48;18.60;97.50
41447;DHT22;27185;52.040;4.490;2023-03-13T12:29:55;18.60;97.20
41447;DHT22;27185;52.040;4.490;2023-03-13T12:33:00;18.70;97.70
41447;DHT22;27185;52.040;4.490;2023-03-13T12:36:03;18.70;98.10
41447;DHT22;27185;52.040;4.490;2023-03-13T12:38:55;18.70;97.80
41447;DHT22;27185;52.040;4.490;2023-03-13T12:41:49;18.60;97.20
41447;DHT22;27185;52.040;4.490;2023-03-13T12:44:39;18.80;97.00
41447;DHT22;27185;52.040;4.490;2023-03-13T12:47:30;19.00;97.60
41447;DHT22;27185;52.040;4.490;2023-03-13T12:53:40;19.10;95.20
41447;DHT22;27185;52.040;4.490;2023-03-13T12:57:01;19.20;94.20
41447;DHT22;27185;52.040;4.490;2023-03-13T12:59:52;19.00;94.30
41447;DHT22;27185;52.040;4.490;2023-03-13T13:02:40;19.00;93.30
41447;DHT22;27185;52.040;4.490;2023-03-13T13:05:25;18.90;94.10
41447;DHT22;27185;52.040;4.490;2023-03-13T13:08:23;19.00;93.10
41447;DHT22;27185;52.040;4.490;2023-03-13T13:20:34;18.90;93.60
41447;DHT22;27185;52.040;4.490;2023-03-13T13:23:53;19.00;93.20
41447;DHT22;27185;52.040;4.490;2023-03-13T13:26:59;18.50;93.60
41447;DHT22;27185;52.040;4.490;2023-03-13T13:32:39;18.30;95.70
41447;DHT22;27185;52.040;4.490;2023-03-13T13:35:28;18.10;95.80
41447;DHT22;27185;52.040;4.490;2023-03-13T13:44:19;17.90;94.00
41447;DHT22;27185;52.040;4.490;2023-03-13T13:47:22;17.90;94.20
41447;DHT22;27185;52.040;4.490;2023-03-13T13:50:21;17.90;93.80
41447;DHT22;27185;52.040;4.490;2023-03-13T13:56:33;18.00;92.90
41447;DHT22;27185;52.040;4.490;2023-03-13T14:05:33;18.00;93.00
41447;DHT22;27185;52.040;4.490;2023-03-13T14:08:32;18.00;92.90
41447;DHT22;27185;52.040;4.490;2023-03-13T14:14:18;18.10;94.00
41447;DHT22;27185;52.040;4.490;2023-03-13T14:17:08;18.30;93.60
41447;DHT22;27185;52.040;4.490;2023-03-13T14:19:55;18.30;93.30
41447;DHT22;27185;52.040;4.490;2023-03-13T14:22:45;18.40;93.90
41447;DHT22;27185;52.040;4.490;2023-03-13T14:29:02;18.10;92.10
41447;DHT22;27185;52.040;4.490;2023-03-13T14:31:56;18.20;91.90
41447;DHT22;27185;52.040;4.490;2023-03-13T14:34:42;18.40;91.70
41447;DHT22;27185;52.040;4.490;2023-03-13T14:37:51;18.40;91.60
41447;DHT22;27185;52.040;4.490;2023-03-13T14:40:38;18.60;91.00
41447;DHT22;27185;52.040;4.490;2023-03-13T14:43:40;18.60;91.90
41447;DHT22;27185;52.040;4.490;2023-03-13T14:46:32;18.60;90.10
41447;DHT22;27185;52.040;4.490;2023-03-13T14:49:20;18.80;91.30
41447;DHT22;27185;52.040;4.490;2023-03-13T14:52:22;18.70;91.00
41447;DHT22;27185;52.040;4.490;2023-03-13T15:01:23;18.50;90.30
41447;DHT22;27185;52.040;4.490;2023-03-13T15:04:09;18.40;90.00
41447;DHT22;27185;52.040;4.490;2023-03-13T15:07:01;18.40;90.60
41447;DHT22;27185;52.040;4.490;2023-03-13T15:09:48;18.30;90.30
41447;DHT22;27185;52.040;4.490;2023-03-13T15:12:41;18.40;91.00
41447;DHT22;27185;52.040;4.490;2023-03-13T15:15:27;18.30;90.30
41447;DHT22;27185;52.040;4.490;2023-03-13T15:18:28;18.30;91.20
41447;DHT22;27185;52.040;4.490;2023-03-13T15:24:11;18.30;91.60
41447;DHT22;27185;52.040;4.490;2023-03-13T15:26:57;18.20;90.50
41447;DHT22;27185;52.040;4.490;2023-03-13T15:29:44;17.90;90.20
41447;DHT22;27185;52.040;4.490;2023-03-13T15:32:33;17.80;90.40
41447;DHT22;27185;52.040;4.490;2023-03-13T15:35:28;18.00;91.20
41447;DHT22;27185;52.040;4.490;2023-03-13T15:38:19;17.90;91.80
41447;DHT22;27185;52.040;4.490;2023-03-13T15:41:05;18.00;91.00
41447;DHT22;27185;52.040;4.490;2023-03-13T15:43:53;17.90;91.10
41447;DHT22;27185;52.040;4.490;2023-03-13T15:46:41;18.00;90.40
41447;DHT22;27185;52.040;4.490;2023-03-13T15:49:27;17.90;91.00
41447;DHT22;27185;52.040;4.490;2023-03-13T15:52:15;17.90;91.20
41447;DHT22;27185;52.040;4.490;2023-03-13T15:55:03;17.90;90.50
41447;DHT22;27185;52.040;4.490;2023-03-13T15:57:51;18.00;91.90
41447;DHT22;27185;52.040;4.490;2023-03-13T16:00:37;17.80;91.00
41447;DHT22;27185;52.040;4.490;2023-03-13T16:03:26;17.80;90.10
41447;DHT22;27185;52.040;4.490;2023-03-13T16:06:20;17.80;90.30
41447;DHT22;27185;52.040;4.490;2023-03-13T16:09:12;17.80;90.20
41447;DHT22;27185;52.040;4.490;2023-03-13T16:11:58;17.70;90.60
41447;DHT22;27185;52.040;4.490;2023-03-13T16:14:43;17.70;91.10
41447;DHT22;27185;52.040;4.490;2023-03-13T16:17:29;17.60;91.20
41447;DHT22;27185;52.040;4.490;2023-03-13T16:20:19;17.50;92.40
41447;DHT22;27185;52.040;4.490;2023-03-13T16:23:05;17.50;91.30
41447;DHT22;27185;52.040;4.490;2023-03-13T16:25:51;17.10;92.30
41447;DHT22;27185;52.040;4.490;2023-03-13T16:28:36;17.20;93.30
41447;DHT22;27185;52.040;4.490;2023-03-13T16:31:30;16.90;93.30
41447;DHT22;27185;52.040;4.490;2023-03-13T16:34:16;16.80;93.70
41447;DHT22;27185;52.040;4.490;2023-03-13T16:37:13;16.70;95.20
41447;DHT22;27185;52.040;4.490;2023-03-13T16:39:59;16.50;95.50
41447;DHT22;27185;52.040;4.490;2023-03-13T16:42:45;16.40;95.90
41447;DHT22;27185;52.040;4.490;2023-03-13T16:45:31;16.30;96.50
41447;DHT22;27185;52.040;4.490;2023-03-13T16:48:17;16.00;96.20
41447;DHT22;27185;52.040;4.490;2023-03-13T16:51:03;16.00;96.70
41447;DHT22;27185;52.040;4.490;2023-03-13T16:53:51;15.90;97.10
41447;DHT22;27185;52.040;4.490;2023-03-13T16:56:40;15.80;96.90
41447;DHT22;27185;52.040;4.490;2023-03-13T16:59:27;15.80;97.20
41447;DHT22;27185;52.040;4.490;2023-03-13T17:02:16;15.70;97.70
41447;DHT22;27185;52.040;4.490;2023-03-13T17:05:02;15.60;97.80
41447;DHT22;27185;52.040;4.490;2023-03-13T17:07:49;15.50;98.50
41447;DHT22;27185;52.040;4.490;2023-03-13T17:10:35;15.50;98.80
41447;DHT22;27185;52.040;4.490;2023-03-13T17:13:21;15.40;98.80
41447;DHT22;27185;52.040;4.490;2023-03-13T17:16:13;15.30;99.10
41447;DHT22;27185;52.040;4.490;2023-03-13T17:19:00;15.20;99.40
41447;DHT22;27185;52.040;4.490;2023-03-13T17:21:45;15.10;99.90
41447;DHT22;27185;52.040;4.490;2023-03-13T17:24:31;15.10;99.90
41447;DHT22;27185;52.040;4.490;2023-03-13T17:27:17;15.10;99.90
41447;DHT22;27185;52.040;4.490;2023-03-13T17:30:14;15.00;99.90
41447;DHT22;27185;52.040;4.490;2023-03-13T17:33:01;15.00;99.90
41447;DHT22;27185;52.040;4.490;2023-03-13T17:35:47;15.10;99.90
41447;DHT22;27185;52.040;4.490;2023-03-13T17:38:33;15.00;99.90
41447;DHT22;27185;52.040;4.490;2023-03-13T17:41:24;15.00;99.90
41447;DHT22;27185;52.040;4.490;2023-03-13T17:44:10;15.00;99.90
41447;DHT22;27185;52.040;4.490;2023-03-13T17:46:55;14.90;99.90
41447;DHT22;27185;52.040;4.490;2023-03-13T17:49:42;15.00;99.90
41447;DHT22;27185;52.040;4.490;2023-03-13T17:52:28;14.90;99.90
41447;DHT22;27185;52.040;4.490;2023-03-13T17:55:14;15.00;99.90
41447;DHT22;27185;52.040;4.490;2023-03-13T17:57:59;15.00;99.90
41447;DHT22;27185;52.040;4.490;2023-03-13T18:00:45;14.90;99.90
41447;DHT22;27185;52.040;4.490;2023-03-13T18:03:31;14.90;99.90
41447;DHT22;27185;52.040;4.490;2023-03-13T18:06:26;14.90;99.90
41447;DHT22;27185;52.040;4.490;2023-03-13T18:09:20;14.80;99.90
41447;DHT22;27185;52.040;4.490;2023-03-13T18:12:08;14.80;99.90
41447;DHT22;27185;52.040;4.490;2023-03-13T18:14:55;14.70;99.90
41447;DHT22;27185;52.040;4.490;2023-03-13T18:17:41;14.70;99.90
41447;DHT22;27185;52.040;4.490;2023-03-13T18:20:30;14.60;99.90
41447;DHT22;27185;52.040;4.490;2023-03-13T18:23:15;14.60;99.90
41447;DHT22;27185;52.040;4.490;2023-03-13T18:26:08;14.60;99.90
41447;DHT22;27185;52.040;4.490;2023-03-13T18:28:57;14.50;99.90
41447;DHT22;27185;52.040;4.490;2023-03-13T18:31:45;14.50;99.90
41447;DHT22;27185;52.040;4.490;2023-03-13T18:34:32;14.40;99.90
41447;DHT22;27185;52.040;4.490;2023-03-13T18:37:27;14.40;99.90
41447;DHT22;27185;52.040;4.490;2023-03-13T18:40:20;14.30;99.90
41447;DHT22;27185;52.040;4.490;2023-03-13T18:43:06;14.20;99.90
41447;DHT22;27185;52.040;4.490;2023-03-13T18:45:52;14.20;99.90
41447;DHT22;27185;52.040;4.490;2023-03-13T18:48:37;14.20;99.90
41447;DHT22;27185;52.040;4.490;2023-03-13T18:51:24;14.10;99.90
41447;DHT22;27185;52.040;4.490;2023-03-13T18:54:10;14.00;99.90
41447;DHT22;27185;52.040;4.490;2023-03-13T18:56:56;14.00;99.90
41447;DHT22;27185;52.040;4.490;2023-03-13T18:59:42;14.00;99.90
41447;DHT22;27185;52.040;4.490;2023-03-13T19:02:28;13.90;99.90
41447;DHT22;27185;52.040;4.490;2023-03-13T19:05:14;13.90;99.90
41447;DHT22;27185;52.040;4.490;2023-03-13T19:08:00;13.90;99.90
41447;DHT22;27185;52.040;4.490;2023-03-13T19:10:46;13.90;99.90
41447;DHT22;27185;52.040;4.490;2023-03-13T19:13:31;13.80;99.90
41447;DHT22;27185;52.040;4.490;2023-03-13T19:16:31;13.80;99.90
41447;DHT22;27185;52.040;4.490;2023-03-13T19:19:23;13.80;99.90
41447;DHT22;27185;52.040;4.490;2023-03-13T19:22:12;13.80;99.90
41447;DHT22;27185;52.040;4.490;2023-03-13T19:24:57;13.70;99.90